Flight Track Log - Related Links

Times and Time Zones

All times are in EDT time to prevent confusion due to time zone crossing. See the N100PM flight status page for this flight to view local times or setup timezone preferences in your user account.

Time Position Orientation Groundspeed Altitude Reporting Facility
EDT Latitude Longitude Course Direction KTS MPH feet Rate Location/Type
Tue 08:43:41 PM 30.9733 -88.4478 260° West 111 128 6,100  Level Houston Center
Tue 08:44:43 PM 30.9761 -88.4828 275° West 109 125 6,100  Level Houston Center
Tue 08:45:45 PM 30.9758 -88.5183 269° West 110 127 6,100  Level Houston Center
Tue 08:46:47 PM 30.9750 -88.5536 268° West 109 125 6,100 -48 Level Houston Center
Tue 08:47:00 PM 30.8354 -88.0628 260° West  Level Estimated
Tue 08:47:49 PM 30.9750 -88.5900 270° West 111 128 6,000  Level Houston Center
Tue 08:48:00 PM 30.8300 -88.0975 260° West  Level FlightAware Approximate
Tue 08:48:50 PM 30.9756 -88.6250 271° West 109 125 6,100  Level Houston Center
Tue 08:49:00 PM 30.8247 -88.1322 260° West  Level FlightAware Approximate
Tue 08:49:52 PM 30.9761 -88.6681 271° West 111 128 6,100  Level Houston Center
Tue 08:50:54 PM 30.9758 -88.7036 269° West 110 127 6,100  Level Houston Center
Tue 08:51:56 PM 30.9747 -88.7403 268° West 112 129 6,100  Level Houston Center
Tue 08:52:58 PM 30.9739 -88.7758 268° West 112 129 6,100  Level Houston Center
Tue 08:54:00 PM 30.9731 -88.8108 268° West 109 125 6,100  Level Houston Center
Tue 08:55:01 PM 30.9769 -88.8472 277° West 112 129 6,100  Level Houston Center
Tue 08:56:03 PM 30.9761 -88.8872 269° West 106 122 6,100  Level Houston Center
Tue 08:57:05 PM 30.9847 -88.9231 286° West 111 128 6,100 -48 Level Houston Center
Tue 08:58:07 PM 30.9922 -88.9556 285° West 114 131 6,000  Descending Houston Center
Tue 08:59:09 PM 30.9914 -88.9975 269° West 110 127 6,100 49 Climbing Houston Center
Tue 09:00:10 PM 30.9881 -89.0336 264° West 112 129 6,100  Level Houston Center
Tue 09:01:12 PM 30.9878 -89.0703 270° West 113 130 6,100  Level Houston Center
Tue 09:02:14 PM 30.9867 -89.1064 268° West 112 129 6,100  Level Houston Center
Tue 09:03:16 PM 30.9889 -89.1425 274° West 112 129 6,100  Level Houston Center
Tue 09:04:17 PM 30.9919 -89.1797 275° West 114 131 6,100  Level Houston Center
Tue 09:05:19 PM 30.9953 -89.2133 277° West 108 124 6,100  Level Houston Center
Tue 09:06:21 PM 31.0000 -89.2575 277° West 113 130 6,100  Level Houston Center
Tue 09:07:22 PM 31.0036 -89.2942 277° West 114 131 6,100  Level Houston Center
Tue 09:08:24 PM 31.0072 -89.3286 277° West 109 125 6,100  Level Houston Center
Tue 09:09:26 PM 31.0089 -89.3650 273° West 111 128 6,100  Level Houston Center
Tue 09:10:27 PM 31.0111 -89.4017 274° West 113 130 6,100  Level Houston Center
Tue 09:11:29 PM 31.0142 -89.4381 276° West 113 130 6,100  Level Houston Center
Tue 09:12:30 PM 31.0161 -89.4742 274° West 113 130 6,100  Level Houston Center
Tue 09:13:32 PM 31.0172 -89.5206 272° West 118 136 6,100  Level Houston Center
Tue 09:14:34 PM 31.0197 -89.5567 275° West 115 132 6,100  Level Houston Center
Tue 09:15:35 PM 31.0217 -89.5931 274° West 113 130 6,100  Level Houston Center
Tue 09:16:37 PM 31.0242 -89.6294 275° West 113 130 6,100  Level Houston Center
Tue 09:17:38 PM 31.0256 -89.6658 273° West 113 130 6,100 -49 Level Houston Center
Tue 09:18:40 PM 31.0294 -89.7025 277° West 114 131 6,000  Descending Houston Center
Tue 09:19:41 PM 31.0319 -89.7389 275° West 113 130 6,100 49 Climbing Houston Center
Tue 09:20:43 PM 31.0339 -89.7822 273° West 113 130 6,100  Level Houston Center
Tue 09:21:44 PM 31.0361 -89.8189 274° West 113 130 6,100  Level Houston Center
Tue 09:22:46 PM 31.0383 -89.8550 274° West 113 130 6,100  Level Houston Center
Tue 09:23:47 PM 31.0406 -89.8911 274° West 113 130 6,100  Level Houston Center
Tue 09:24:48 PM 31.0419 -89.9272 273° West 112 129 6,100  Level Houston Center
Tue 09:25:50 PM 31.0444 -89.9614 275° West 108 124 6,100 -49 Level Houston Center
Tue 09:26:51 PM 31.0472 -89.9978 275° West 111 128 6,000 -49 Descending Houston Center
Tue 09:27:52 PM 31.0492 -90.0342 274° West 112 129 6,000 49 Level Houston Center
Tue 09:28:54 PM 31.0517 -90.0703 275° West 112 129 6,100 49 Climbing Houston Center
Tue 09:29:55 PM 31.0542 -90.1119 274° West 109 125 6,100  Level Houston Center
Tue 09:30:56 PM 31.0567 -90.1478 275° West 110 127 6,100  Level Houston Center
Tue 09:31:58 PM 31.0581 -90.1842 273° West 112 129 6,100  Level Houston Center
Tue 09:32:59 PM 31.0603 -90.2206 274° West 112 129 6,100 -49 Level Houston Center
Tue 09:34:00 PM 31.0619 -90.2567 273° West 113 130 6,000  Descending Houston Center
Tue 09:35:01 PM 31.0644 -90.2911 275° West 109 125 6,100 49 Climbing Houston Center
Tue 09:36:03 PM 31.0664 -90.3269 274° West 109 125 6,100  Level Houston Center
Tue 09:37:04 PM 31.0681 -90.3633 273° West 112 129 6,100 -49 Level Houston Center
Tue 09:38:05 PM 31.0708 -90.3997 275° West 113 130 6,000  Descending Houston Center
Tue 09:39:06 PM 31.0728 -90.4406 273° West 108 124 6,100 49 Climbing Houston Center
Tue 09:40:08 PM 31.0742 -90.4772 273° West 111 128 6,100  Level Houston Center
Tue 09:41:09 PM 31.0767 -90.5108 275° West 107 123 6,100 -49 Level Houston Center
Tue 09:42:10 PM 31.0783 -90.5453 273° West 106 122 6,000  Descending Houston Center
Tue 09:43:11 PM 31.0803 -90.5786 274° West 105 121 6,100 49 Climbing Houston Center
Tue 09:44:12 PM 31.0819 -90.6150 273° West 109 125 6,100  Level Houston Center
Tue 09:45:13 PM 31.0842 -90.6494 274° West 108 124 6,100  Level Houston Center
Tue 09:46:14 PM 31.0867 -90.6844 275° West 108 124 6,100  Level Houston Center
Tue 09:47:16 PM 31.0889 -90.7186 274° West 107 123 6,100  Level Houston Center
Tue 09:48:17 PM 31.0903 -90.7558 273° West 111 128 6,100  Level Houston Center
Tue 09:49:18 PM 31.0917 -90.7997 272° West 112 129 6,100  Level Houston Center
Tue 09:50:19 PM 31.0944 -90.8333 276° West 107 123 6,100  Level Houston Center
Tue 09:51:20 PM 31.0950 -90.8700 271° West 111 128 6,100  Level Houston Center
Tue 09:52:21 PM 31.0972 -90.9044 274° West 108 124 6,100  Level Houston Center
Tue 09:53:22 PM 31.0983 -90.9406 272° West 110 127 6,100  Level Houston Center
Tue 09:54:23 PM 31.1006 -90.9744 274° West 107 123 6,100  Level Houston Center
Tue 09:55:24 PM 31.1017 -91.0106 272° West 109 125 6,100  Level Houston Center
Tue 09:56:25 PM 31.1047 -91.0453 276° West 108 124 6,100  Level Houston Center
Tue 09:57:26 PM 31.1044 -91.0819 270° West 111 128 6,100  Level Houston Center
Tue 09:58:27 PM 31.1089 -91.1147 279° West 107 123 6,100  Level Houston Center
Tue 09:59:28 PM 31.1092 -91.1539 270° West 109 125 6,100  Level Houston Center
Tue 10:00:29 PM 31.1086 -91.1878 269° West 110 127 6,100  Level Houston Center
Tue 10:01:30 PM 31.1131 -91.2286 277° West 107 123 6,100  Level Houston Center
Tue 10:02:30 PM 31.1142 -91.2653 272° West 110 127 6,100  Level Houston Center
Tue 10:03:31 PM 31.1161 -91.3003 274° West 110 127 6,100  Level Houston Center
Tue 10:04:32 PM 31.1175 -91.3367 273° West 111 128 6,100  Level Houston Center
Tue 10:05:33 PM 31.1178 -91.3731 271° West 112 129 6,100 -49 Level Houston Center
Tue 10:06:34 PM 31.1194 -91.4125 273° West 113 130 6,000 -55 Descending Houston Center
Tue 10:07:22 PM 31.1206 -91.4400 273° West 113 130 6,000  Level Houston Center
Tue 10:07:28 PM 31.1208 -91.4425 277° West 113 130 6,000  Level Houston Center
Tue 10:07:35 PM 31.1208 -91.4481 270° West 111 128 6,000  Level Houston Center
Tue 10:08:28 PM 31.1217 -91.4814 272° West 114 131 6,000  Level Houston Center
Tue 10:08:36 PM 31.1228 -91.4850 290° West 114 131 6,000  Level Houston Center
Tue 10:09:29 PM 31.1244 -91.5200 273° West 113 130 6,000  Level Houston Center
Tue 10:09:37 PM 31.1256 -91.5206 337° Northwest 111 128 6,000  Level Houston Center
Tue 10:10:29 PM 31.1269 -91.5539 273° West 111 128 6,000  Level Houston Center
Tue 10:10:38 PM 31.1281 -91.5572 291° West 113 130 6,000  Level Houston Center
Tue 10:11:30 PM 31.1278 -91.5928 269° West 111 128 6,000  Level Houston Center
Tue 10:11:39 PM 31.1292 -91.5944 314° West 114 131 6,000  Level Houston Center
Tue 10:12:31 PM 31.1303 -91.6267 272° West 111 128 6,000  Level Houston Center
Tue 10:12:40 PM 31.1311 -91.6286 297° West 108 124 6,000  Level Houston Center
Tue 10:13:31 PM 31.1331 -91.6628 274° West 110 127 6,000  Level Houston Center
Tue 10:13:40 PM 31.1311 -91.6644 216° Southwest 110 127 6,000  Level Houston Center
Tue 10:14:32 PM 31.1356 -91.6967 279° West 107 123 6,000  Level Houston Center
Tue 10:14:41 PM 31.1336 -91.6989 224° Southwest 108 124 6,000  Level Houston Center
Tue 10:15:32 PM 31.1339 -91.7333 271° West 106 122 6,000  Level Houston Center
Tue 10:15:42 PM 31.1356 -91.7336 352° North 108 124 6,000  Level Houston Center
Tue 10:16:33 PM 31.1361 -91.7647 271° West 106 122 6,000  Level Houston Center
Tue 10:16:43 PM 31.1367 -91.7675 283° West 105 121 6,000  Level Houston Center
Tue 10:17:34 PM 31.1367 -91.8014 270° West 104 120 6,000  Level Houston Center
Tue 10:17:44 PM 31.1386 -91.8014 360° North 105 121 6,000  Level Houston Center
Tue 10:18:34 PM 31.1392 -91.8353 271° West 102 117 6,000  Level Houston Center
Tue 10:18:45 PM 31.1400 -91.8344 41° Northeast 104 120 6,000  Level Houston Center
Tue 10:19:35 PM 31.1414 -91.8667 273° West 102 117 6,000  Level Houston Center
Tue 10:19:46 PM 31.1417 -91.8739 273° West 102 117 6,000  Level Houston Center
Tue 10:20:35 PM 31.1442 -91.9028 276° West 103 119 6,000  Level Houston Center
Tue 10:20:47 PM 31.1436 -91.9067 261° West 103 119 6,000  Level Houston Center
Tue 10:21:36 PM 31.1442 -91.9344 271° West 103 119 6,000  Level Houston Center
Tue 10:21:47 PM 31.1450 -91.9403 279° West 103 119 6,000  Level Houston Center
Tue 10:22:37 PM 31.1467 -91.9683 274° West 105 121 6,000  Level Houston Center
Tue 10:22:48 PM 31.1469 -91.9739 273° West 104 120 6,000  Level Houston Center
Tue 10:23:49 PM 31.1486 -92.0075 273° West 104 120 6,000  Level Houston Center
Tue 10:24:38 PM 31.1494 -92.0364 272° West 105 121 6,000  Level Houston Center
Tue 10:24:50 PM 31.1500 -92.0411 278° West 104 120 6,000  Level Houston Center
Tue 10:25:38 PM 31.1519 -92.0725 274° West 103 119 6,000  Level Houston Center
Tue 10:25:51 PM 31.1522 -92.0747 278° West 104 120 6,000  Level Houston Center
Tue 10:26:39 PM 31.1542 -92.1042 274° West 103 119 6,000  Level Houston Center
Tue 10:26:52 PM 31.1536 -92.1083 261° West 104 120 6,000  Level Houston Center
Tue 10:27:40 PM 31.1547 -92.1406 272° West 104 120 6,000  Level Houston Center
Tue 10:27:53 PM 31.1558 -92.1419 313° West 104 120 6,000  Level Houston Center
Tue 10:28:40 PM 31.1567 -92.1719 272° West 102 117 6,000  Level Houston Center
Tue 10:28:54 PM 31.1578 -92.1750 293° West 103 119 6,000  Level Houston Center
Tue 10:29:41 PM 31.1592 -92.2058 273° West 103 119 6,000  Level Houston Center
Tue 10:29:55 PM 31.1589 -92.2081 262° West 103 119 6,000  Level Houston Center
Tue 10:30:41 PM 31.1614 -92.2375 276° West 103 119 6,000  Level Houston Center
Tue 10:30:56 PM 31.1603 -92.2408 249° West 102 117 6,000  Level Houston Center
Tue 10:31:57 PM 31.1617 -92.2744 273° West 103 119 6,000  Level Houston Center
Tue 10:32:43 PM 31.1619 -92.3056 271° West 103 119 6,000  Level Houston Center
Tue 10:32:58 PM 31.1633 -92.3156 279° West 105 121 6,000  Level Houston Center
Tue 10:33:43 PM 31.1642 -92.3419 272° West 107 123 6,000  Level Houston Center
Tue 10:33:59 PM 31.1644 -92.3497 272° West 106 122 6,000  Level Houston Center
Tue 10:34:44 PM 31.1644 -92.3758 270° West 107 123 6,000  Level Houston Center
Tue 10:35:00 PM 31.1658 -92.3842 281° West 106 122 6,000  Level Houston Center
Tue 10:35:44 PM 31.1647 -92.4100 267° West 105 121 6,000  Level Houston Center
Tue 10:36:01 PM 31.1667 -92.4186 285° West 106 122 6,000  Level Houston Center
Tue 10:36:45 PM 31.1650 -92.4464 266° West 105 121 6,000  Level Houston Center
Tue 10:37:02 PM 31.1681 -92.4525 300° West 105 121 6,000  Level Houston Center
Tue 10:37:46 PM 31.1694 -92.4778 274° West 106 122 6,000  Level Houston Center
Tue 10:38:03 PM 31.1686 -92.4864 264° West 105 121 6,000  Level Houston Center
Tue 10:38:46 PM 31.1697 -92.5142 273° West 105 121 6,000  Level Houston Center
Tue 10:39:04 PM 31.1706 -92.5208 278° West 106 122 6,000  Level Houston Center
Tue 10:39:47 PM 31.1697 -92.5458 268° West 106 122 6,000  Level Houston Center
Tue 10:40:05 PM 31.1714 -92.5550 282° West 105 121 6,000  Level Houston Center
Tue 10:40:47 PM 31.1722 -92.5822 272° West 105 121 6,000  Level Houston Center
Tue 10:41:06 PM 31.1719 -92.5892 267° West 105 121 6,000  Level Houston Center
Tue 10:41:48 PM 31.1722 -92.6164 271° West 105 121 6,000  Level Houston Center
Tue 10:42:07 PM 31.1731 -92.6231 278° West 104 120 6,000  Level Houston Center
Tue 10:42:49 PM 31.1725 -92.6503 269° West 106 122 6,000  Level Houston Center
Tue 10:43:08 PM 31.1739 -92.6575 283° West 106 122 6,000  Level Houston Center
Tue 10:43:49 PM 31.1747 -92.6867 272° West 105 121 6,000  Level Houston Center
Tue 10:44:09 PM 31.1744 -92.6914 266° West 104 120 6,000  Level Houston Center
Tue 10:44:50 PM 31.1747 -92.7183 271° West 101 116 6,000  Level Houston Center
Tue 10:45:10 PM 31.1758 -92.7236 284° West 102 117 6,000  Level Houston Center
Tue 10:45:50 PM 31.1769 -92.7522 273° West 99 114 6,000  Level Houston Center
Tue 10:46:11 PM 31.1778 -92.7553 288° West 100 115 6,000  Level Houston Center
Tue 10:46:51 PM 31.1769 -92.7839 268° West 103 119 6,000  Level Houston Center
Tue 10:47:12 PM 31.1794 -92.7889 300° West 101 116 6,000  Level Houston Center
Tue 10:47:52 PM 31.1792 -92.8178 269° West 105 121 6,000  Level Houston Center
Tue 10:48:13 PM 31.1808 -92.8233 289° West 103 119 6,000  Level Houston Center
Tue 10:48:52 PM 31.1814 -92.8517 271° West 105 121 6,000  Level Houston Center
Tue 10:49:14 PM 31.1817 -92.8642 271° West 105 121 6,000  Level Houston Center
Tue 10:49:53 PM 31.1814 -92.8858 269° West 104 120 6,000  Level Houston Center
Tue 10:50:15 PM 31.1831 -92.8983 279° West 105 121 6,000  Level Houston Center
Tue 10:50:53 PM 31.1836 -92.9222 272° West 103 119 6,000  Level Houston Center
Tue 10:51:16 PM 31.1850 -92.9322 279° West 105 121 6,000  Level Houston Center
Tue 10:51:54 PM 31.1858 -92.9536 273° West 104 120 6,000  Level Houston Center
Tue 10:52:17 PM 31.1875 -92.9650 280° West 104 120 6,000  Level Houston Center
Tue 10:52:55 PM 31.1858 -92.9903 266° West 103 119 6,000  Level Houston Center
Tue 10:53:17 PM 31.1881 -92.9983 288° West 102 117 6,000  Level Houston Center
Tue 10:53:55 PM 31.1881 -93.0217 270° West 104 120 6,000  Level Houston Center
Tue 10:54:18 PM 31.1894 -93.0322 279° West 105 121 6,000  Level Houston Center
Tue 10:54:56 PM 31.1900 -93.0556 272° West 104 120 6,000  Level Houston Center
Tue 10:55:19 PM 31.1919 -93.0650 284° West 103 119 6,000  Level Houston Center
Tue 10:55:56 PM 31.1922 -93.0894 271° West 104 120 6,000  Level Houston Center
Tue 10:56:20 PM 31.1933 -93.0983 278° West 102 117 6,000  Level Houston Center
Tue 10:56:57 PM 31.1942 -93.1233 272° West 104 120 6,000  Level Houston Center
Tue 10:57:21 PM 31.1947 -93.1333 274° West 105 121 6,000  Level Houston Center
Tue 10:57:58 PM 31.1964 -93.1572 275° West 102 117 6,000  Level Houston Center
Tue 10:58:22 PM 31.1967 -93.1658 272° West 103 119 6,000  Level Houston Center
Tue 10:58:58 PM 31.1986 -93.1911 275° West 104 120 6,000  Level Houston Center
Tue 10:59:23 PM 31.1983 -93.1989 268° West 102 117 6,000  Level Houston Center
Tue 10:59:59 PM 31.1986 -93.2253 271° West 104 120 6,000  Level Houston Center
Tue 11:00:24 PM 31.2008 -93.2331 288° West 104 120 6,000  Level Houston Center
Tue 11:00:59 PM 31.2006 -93.2569 269° West 103 119 6,000  Level Houston Center
Tue 11:01:25 PM 31.2019 -93.2658 280° West 102 117 6,000  Level Houston Center
Tue 11:02:00 PM 31.2025 -93.2931 271° West 102 117 6,000  Level Houston Center
Tue 11:02:25 PM 31.2047 -93.3039 283° West 101 116 6,000  Level Houston Center
Tue 11:03:01 PM 31.2067 -93.3269 276° West 102 117 6,000  Level Houston Center
Tue 11:03:26 PM 31.2075 -93.3386 275° West 105 121 6,000  Level Houston Center
Tue 11:04:01 PM 31.2086 -93.3583 274° West 103 119 6,000  Level Houston Center
Tue 11:04:27 PM 31.2100 -93.3714 277° West 102 117 6,000  Level Houston Center
Tue 11:05:02 PM 31.2108 -93.3922 273° West 102 117 6,000  Level Houston Center
Tue 11:05:28 PM 31.2114 -93.4053 273° West 102 117 6,000  Level Houston Center
Tue 11:06:02 PM 31.2125 -93.4239 274° West 102 117 6,000 98 Level Houston Center
Tue 11:06:29 PM 31.2131 -93.4369 273° West 100 115 6,100 197 Climbing Houston Center
Tue 11:07:03 PM 31.2125 -93.4556 268° West 91 105 6,200 98 Climbing Houston Center
Tue 11:07:30 PM 31.2144 -93.4661 282° West 93 107 6,200 -98 Level Houston Center
Tue 11:08:04 PM 31.2203 -93.4842 291° West 101 116 6,100 -98 Descending Houston Center
Tue 11:08:31 PM 31.2250 -93.4969 293° West 98 113 6,100  Level Houston Center
Tue 11:09:04 PM 31.2247 -93.5203 269° West 106 122 6,100 -100 Level Houston Center
Tue 11:09:31 PM 31.2264 -93.5314 280° West 102 117 6,000  Descending Houston Center
Tue 11:10:05 PM 31.2286 -93.5542 277° West 103 119 6,100  Climbing Houston Center
Tue 11:10:32 PM 31.2303 -93.5639 281° West 102 117 6,000 -68 Descending Houston Center
Tue 11:11:33 PM 31.2283 -93.5967 266° West 100 115 6,000  Level Houston Center
Tue 11:12:34 PM 31.2336 -93.6275 281° West 96 110 6,000 49 Level Houston Center
Tue 11:13:35 PM 31.2317 -93.6600 266° West 98 113 6,100  Climbing Houston Center
Tue 11:14:36 PM 31.2333 -93.7003 273° West 102 117 6,000 -50 Descending Houston Center
Tue 11:15:36 PM 31.2314 -93.7344 266° West 104 120 6,000  Level Houston Center
Tue 11:16:37 PM 31.2294 -93.7653 266° West 97 112 6,000  Level Houston Center
Tue 11:17:38 PM 31.2286 -93.7972 268° West 98 113 6,000  Level Houston Center
Tue 11:18:39 PM 31.2286 -93.8292 270° West 98 113 6,000  Level Houston Center
Tue 11:19:40 PM 31.2303 -93.8614 273° West 98 113 6,000  Level Houston Center
Tue 11:20:40 PM 31.2308 -93.8947 271° West 101 116 6,000  Level Houston Center
Tue 11:21:41 PM 31.2314 -93.9292 271° West 100 115 6,000  Level Houston Center
Tue 11:22:42 PM 31.2331 -93.9614 273° West 99 114 6,000  Level Houston Center
Tue 11:23:43 PM 31.2333 -93.9933 271° West 98 113 6,000  Level Houston Center
Tue 11:24:44 PM 31.2328 -94.0250 269° West 96 110 6,000  Level Houston Center
Tue 11:25:44 PM 31.2333 -94.0578 271° West 99 114 6,000  Level Houston Center
Tue 11:26:45 PM 31.2336 -94.0894 271° West 98 113 6,000  Level Houston Center
Tue 11:27:46 PM 31.2333 -94.1197 269° West 94 108 6,000  Level Houston Center
Tue 11:28:47 PM 31.2336 -94.1503 271° West 93 107 6,000  Level Houston Center
Tue 11:29:47 PM 31.2333 -94.1822 269° West 97 112 6,000  Level Houston Center
Tue 11:30:48 PM 31.2325 -94.2144 268° West 98 113 6,000  Level Houston Center
Tue 11:31:49 PM 31.2331 -94.2464 271° West 99 114 6,000 -148 Level Houston Center
Tue 11:32:50 PM 31.2331 -94.2792 270° West 100 115 5,700 -347 Descending Houston Center
Tue 11:33:50 PM 31.2319 -94.3175 268° West 116 133 5,300 -446 Descending Houston Center
Tue 11:34:51 PM 31.2361 -94.3575 277° West 123 142 4,800 -443 Descending Houston Center
Tue 11:35:52 PM 31.2444 -94.3975 284° West 127 146 4,400 -443 Descending Houston Center
Tue 11:36:53 PM 31.2556 -94.4469 285° West 131 151 3,900 -496 Descending Houston Center
Tue 11:37:53 PM 31.2661 -94.4881 287° West 133 153 3,400 -496 Descending Houston Center
Tue 11:38:54 PM 31.2772 -94.5281 288° West 131 151 2,900 -443 Descending Houston Center
Tue 11:39:55 PM 31.2844 -94.5700 281° West 132 152 2,500 -393 Descending Houston Center
Tue 11:41:00 PM 31.2601 -94.5987 225° Southwest  Level FlightAware Approximate
Tue 11:48:00 PM 31.2333 -94.7500 281° West  Level FlightAware Approximate
Tue 11:49:00 PM 31.2210 -94.7156 281° West  Level Estimated
Tue 11:50:00 PM 31.2333 -94.7500 281° West  Level FlightAware Approximate
Tue 11:51:00 PM 31.2210 -94.7156 281° West  Level Estimated
Tue 11:52:00 PM 31.2333 -94.7500 281° West  Level FlightAware Approximate
Tue 11:53:00 PM 31.2210 -94.7156 281° West  Level Estimated
Tue 11:54:00 PM 31.2333 -94.7500 281° West  Level FlightAware Approximate
Tue 11:55:00 PM 31.2210 -94.7156 281° West  Level Estimated
Tue 11:56:00 PM 31.2333 -94.7500 281° West  Level FlightAware Approximate
Tue 11:57:00 PM 31.2210 -94.7156 281° West  Level Estimated
Tue 11:58:00 PM 31.2333 -94.7500 281° West  Level FlightAware Approximate
Tue 11:59:00 PM 31.2210 -94.7156 281° West  Level Estimated
Wed 12:00:00 AM 31.2333 -94.7500 281° West  Level FlightAware Approximate
Wed 12:01:00 AM 31.2210 -94.7156 281° West  Level Estimated
Wed 12:02:00 AM 31.2333 -94.7500 281° West  Level FlightAware Approximate

Login

Don't have an account? Register now (free) for customized features, flight alerts, and more!